Relevés horaires Matro (Suisse)


Relevés horaires à Matro - Lundi 05 Janv. 2015
Heure UTC1 Température [°C] Vent [km/h] Hum. [%] Pres.4 [hPa] Visi. [Km] Nébu. [octa] Préc.5 [mm] Cond.
2m. Res. Ros. Dir.2 Vit. Moy. Raf.3
23:00 -0.5 -7.6 -15.1 NNO 35.2 35.2 53.7 32 850(-0.3/3h) -- -- -- --
22:00 -0.3 -7.7 -15.1 NO 38.9 40.7 61.1 32 850(-0.8/3h) -- -- -- --
21:00 -0.2 -7.4 -15.3 NNO 37.0 40.7 55.6 31 850 -- -- -- --
20:00 -0.3 -7.7 -14.6 NNO 38.9 38.9 53.7 33 850(-0.7/3h) -- -- -- --
19:00 -0.8 -8 -14.8 NNO 35.2 38.9 53.7 34 850(-0.4/3h) -- -- -- --
18:00 -1.1 -8.4 -14.5 NNO 35.2 38.9 53.7 35 850(-0.2/3h) -- -- -- --
17:00 -1.3 -8.7 -14.6 NNO 35.2 37.0 53.7 35 850(-0.2/3h) -- -- -- --
16:00 -1.0 -7.5 -14.9 NO 27.8 31.5 42.6 34 850(-0.2/3h) -- -- -- --
15:00 -0.6 -7.2 -15.2 NO 29.6 31.5 46.3 32 850(-0.5/3h) -- -- -- --
14:00 -0.7 -7.5 -15.8 NO 31.5 31.5 42.6 31 850(-1.1/3h) -- -- -- --
13:00 -0.9 -7.4 -16.1 NO 27.8 31.5 42.6 30 850(-1.1/3h) -- -- -- --
12:00 -1.4 -8.5 -17.3 NO 31.5 42.6 61.1 28 850(-0.8/3h) -- -- -- --
11:00 -2.0 -8.1 -19.6 NO 22.2 24.1 44.4 24 850(0.1/3h) -- -- -- --
10:00 -2.0 -9.4 -20.8 NO 33.3 35.2 53.7 22 850(0.4/3h) -- -- -- --
09:00 -2.9 -10.4 -21.9 NNO 31.5 42.6 61.1 21 850(0.5/3h) -- -- -- --
08:00 -3.4 -11.7 -23.1 NNO 37.0 40.7 59.3 20 850(0.5/3h) -- -- -- --
07:00 -4.0 -12.8 -23.8 NO 40.7 42.6 61.1 20 850(0.3/3h) -- -- -- --
06:00 -4.4 -13 -22.4 NNO 37.0 46.3 68.5 23 850(-0.2/3h) -- -- -- --
05:00 -4.2 -13.1 -23.2 NNO 40.7 46.3 68.5 21 850(-0.9/3h) -- -- -- --
04:00 -4.4 -13.7 -22.7 NO 44.4 46.3 63.0 22 850(-0.8/3h) -- -- -- --
03:00 -5.4 -14.1 -20.4 NNO 35.2 38.9 53.7 29 850(-0.4/3h) -- -- -- --
02:00 -5.9 -14.6 -19.5 NNO 33.3 33.3 51.9 33 850(0.2/3h) -- -- -- --
01:00 -7.0 -15.8 -16.8 NNO 31.5 31.5 44.4 45 850(0.4/3h) -- -- -- --
00:00 -7.0 -15.3 -16.4 NNO 27.8 44.4 66.7 47 850(0.9/3h) -- -- -- --

1 Coordinated Universal Time. Actuellement il est 13:00 locale et 11:00 UTC.

2 Le vent souffle depuis la direction indiquée vers la direction oposée.

3 Les rafales max. sont disponible 40 min après l'heure du relevé.

4 Pour les stations d'altitude (plus de 600m) le géopotentiel du niveau le plus proche de la pression obligatoire est indiqué.

5 Les stations disposant d'un diffuseur peuvent indiquer "trace". Cela signifie que des précipitations ont touchés le sol mais que la quantité est inférieure à 0.1 mm.

Copyright

Les données affichées sur cette page sont la propriété exclusive de Météo Suisse.

Récapitulatif de la journée
Température [°C] Vent [km/h] Ensoleillement4 [h] Precipitations totale5 [mm] Pression [Hpa]
Min1 Max.2 Moy.3 Max. Min Max.
-7.3 -0.5 38 68.5 7 h 18 min 0 850.0 850.0

1 Température minimale relevée entre 18:00 UTC la veille et 18:00 UTC le jour donné.

2 Température maximale relevée entre 06:00 UTC le jour donné et 06:00 UTC le lendemain.

3 Vent moyen de la journée basé sur les relevés horaires.

4 Ensoleillement en heures relevé entre 06:00 UTC la veille et 06:00 UTC le jour donné.

5 Précipitations totales tombées entre 06:00 UTC la jour donné et 06:00 UTC le lendemain.

Graphiques horaires